sensor_id;sensor_type;location;lat;lon;timestamp;P1;durP1;ratioP1;P2;durP2;ratioP2
62990;SDS011;49084;48.204;16.202;2023-06-04T00:02:24;4.35;;;2.03;;
62990;SDS011;49084;48.204;16.202;2023-06-04T00:04:50;5.50;;;2.03;;
62990;SDS011;49084;48.204;16.202;2023-06-04T00:07:16;5.95;;;2.38;;
62990;SDS011;49084;48.204;16.202;2023-06-04T00:09:41;2.70;;;1.92;;
62990;SDS011;49084;48.204;16.202;2023-06-04T00:12:07;5.30;;;2.80;;
62990;SDS011;49084;48.204;16.202;2023-06-04T00:14:33;3.30;;;2.30;;
62990;SDS011;49084;48.204;16.202;2023-06-04T00:16:58;6.47;;;2.30;;
62990;SDS011;49084;48.204;16.202;2023-06-04T00:19:24;6.45;;;2.13;;
62990;SDS011;49084;48.204;16.202;2023-06-04T00:21:50;4.43;;;2.17;;
62990;SDS011;49084;48.204;16.202;2023-06-04T00:24:16;9.27;;;2.88;;
62990;SDS011;49084;48.204;16.202;2023-06-04T00:26:42;5.03;;;2.30;;
62990;SDS011;49084;48.204;16.202;2023-06-04T00:29:07;3.95;;;2.00;;
62990;SDS011;49084;48.204;16.202;2023-06-04T00:31:33;4.13;;;1.90;;
62990;SDS011;49084;48.204;16.202;2023-06-04T00:33:59;4.28;;;2.17;;
62990;SDS011;49084;48.204;16.202;2023-06-04T00:36:24;6.45;;;2.55;;
62990;SDS011;49084;48.204;16.202;2023-06-04T00:38:50;3.05;;;2.38;;
62990;SDS011;49084;48.204;16.202;2023-06-04T00:41:16;5.57;;;2.58;;
62990;SDS011;49084;48.204;16.202;2023-06-04T00:43:41;3.45;;;2.50;;
62990;SDS011;49084;48.204;16.202;2023-06-04T00:46:10;3.13;;;2.10;;
62990;SDS011;49084;48.204;16.202;2023-06-04T00:48:43;4.03;;;2.28;;
62990;SDS011;49084;48.204;16.202;2023-06-04T00:51:09;5.78;;;2.03;;
62990;SDS011;49084;48.204;16.202;2023-06-04T00:53:36;5.43;;;2.28;;
62990;SDS011;49084;48.204;16.202;2023-06-04T00:56:02;6.03;;;2.88;;
62990;SDS011;49084;48.204;16.202;2023-06-04T00:58:30;5.33;;;2.17;;
62990;SDS011;49084;48.204;16.202;2023-06-04T01:00:56;4.40;;;2.40;;
62990;SDS011;49084;48.204;16.202;2023-06-04T01:03:27;12.73;;;2.60;;
62990;SDS011;49084;48.204;16.202;2023-06-04T01:08:29;5.32;;;2.38;;
62990;SDS011;49084;48.204;16.202;2023-06-04T01:10:56;5.97;;;2.47;;
62990;SDS011;49084;48.204;16.202;2023-06-04T01:13:23;4.20;;;2.58;;
62990;SDS011;49084;48.204;16.202;2023-06-04T01:15:49;6.07;;;2.70;;
62990;SDS011;49084;48.204;16.202;2023-06-04T01:18:27;6.93;;;2.55;;
62990;SDS011;49084;48.204;16.202;2023-06-04T01:20:58;5.70;;;2.80;;
62990;SDS011;49084;48.204;16.202;2023-06-04T01:23:28;9.23;;;2.40;;
62990;SDS011;49084;48.204;16.202;2023-06-04T01:26:14;8.32;;;2.65;;
62990;SDS011;49084;48.204;16.202;2023-06-04T01:28:40;5.15;;;2.53;;
62990;SDS011;49084;48.204;16.202;2023-06-04T01:31:06;3.47;;;2.55;;
62990;SDS011;49084;48.204;16.202;2023-06-04T01:33:35;5.30;;;2.53;;
62990;SDS011;49084;48.204;16.202;2023-06-04T01:36:01;3.05;;;2.30;;
62990;SDS011;49084;48.204;16.202;2023-06-04T01:38:27;3.92;;;2.42;;
62990;SDS011;49084;48.204;16.202;2023-06-04T01:40:53;5.00;;;2.60;;
62990;SDS011;49084;48.204;16.202;2023-06-04T01:43:21;3.22;;;2.20;;
62990;SDS011;49084;48.204;16.202;2023-06-04T01:45:47;4.80;;;2.53;;
62990;SDS011;49084;48.204;16.202;2023-06-04T01:48:13;7.57;;;2.67;;
62990;SDS011;49084;48.204;16.202;2023-06-04T01:50:39;5.40;;;2.63;;
62990;SDS011;49084;48.204;16.202;2023-06-04T01:53:04;5.50;;;2.90;;
62990;SDS011;49084;48.204;16.202;2023-06-04T01:55:31;4.85;;;3.15;;
62990;SDS011;49084;48.204;16.202;2023-06-04T01:57:58;4.28;;;2.50;;
62990;SDS011;49084;48.204;16.202;2023-06-04T02:00:25;9.40;;;3.00;;
62990;SDS011;49084;48.204;16.202;2023-06-04T02:02:51;6.82;;;2.65;;
62990;SDS011;49084;48.204;16.202;2023-06-04T02:05:17;3.58;;;2.50;;
62990;SDS011;49084;48.204;16.202;2023-06-04T02:07:44;5.05;;;2.70;;
62990;SDS011;49084;48.204;16.202;2023-06-04T02:10:18;5.55;;;2.47;;
62990;SDS011;49084;48.204;16.202;2023-06-04T02:12:58;4.72;;;3.00;;
62990;SDS011;49084;48.204;16.202;2023-06-04T02:15:25;4.07;;;2.42;;
62990;SDS011;49084;48.204;16.202;2023-06-04T02:17:53;7.60;;;2.92;;
62990;SDS011;49084;48.204;16.202;2023-06-04T02:20:23;6.00;;;3.08;;
62990;SDS011;49084;48.204;16.202;2023-06-04T02:22:49;7.05;;;3.15;;
62990;SDS011;49084;48.204;16.202;2023-06-04T02:25:14;5.35;;;2.60;;
62990;SDS011;49084;48.204;16.202;2023-06-04T02:27:40;6.35;;;2.88;;
62990;SDS011;49084;48.204;16.202;2023-06-04T02:30:06;7.05;;;2.50;;
62990;SDS011;49084;48.204;16.202;2023-06-04T02:32:32;6.55;;;2.80;;
62990;SDS011;49084;48.204;16.202;2023-06-04T02:35:00;3.95;;;2.60;;
62990;SDS011;49084;48.204;16.202;2023-06-04T02:37:27;3.70;;;2.80;;
62990;SDS011;49084;48.204;16.202;2023-06-04T02:39:52;5.50;;;2.35;;
62990;SDS011;49084;48.204;16.202;2023-06-04T02:42:18;3.55;;;2.55;;
62990;SDS011;49084;48.204;16.202;2023-06-04T02:44:43;6.15;;;2.38;;
62990;SDS011;49084;48.204;16.202;2023-06-04T02:47:09;6.90;;;2.53;;
62990;SDS011;49084;48.204;16.202;2023-06-04T02:49:35;4.57;;;2.78;;
62990;SDS011;49084;48.204;16.202;2023-06-04T02:52:00;5.05;;;2.70;;
62990;SDS011;49084;48.204;16.202;2023-06-04T02:54:26;3.67;;;2.80;;
62990;SDS011;49084;48.204;16.202;2023-06-04T02:56:51;5.05;;;2.83;;
62990;SDS011;49084;48.204;16.202;2023-06-04T02:59:18;8.65;;;2.75;;
62990;SDS011;49084;48.204;16.202;2023-06-04T03:01:44;8.07;;;3.08;;
62990;SDS011;49084;48.204;16.202;2023-06-04T03:04:09;4.57;;;2.67;;
62990;SDS011;49084;48.204;16.202;2023-06-04T03:06:40;7.38;;;2.75;;
62990;SDS011;49084;48.204;16.202;2023-06-04T03:09:11;3.88;;;2.58;;
62990;SDS011;49084;48.204;16.202;2023-06-04T03:11:37;4.60;;;2.63;;
62990;SDS011;49084;48.204;16.202;2023-06-04T03:14:02;6.50;;;3.25;;
62990;SDS011;49084;48.204;16.202;2023-06-04T03:16:28;6.35;;;2.60;;
62990;SDS011;49084;48.204;16.202;2023-06-04T03:18:54;5.95;;;2.58;;
62990;SDS011;49084;48.204;16.202;2023-06-04T03:21:21;5.05;;;2.35;;
62990;SDS011;49084;48.204;16.202;2023-06-04T03:23:47;4.90;;;2.47;;
62990;SDS011;49084;48.204;16.202;2023-06-04T03:26:12;6.55;;;3.20;;
62990;SDS011;49084;48.204;16.202;2023-06-04T03:28:39;4.28;;;2.67;;
62990;SDS011;49084;48.204;16.202;2023-06-04T03:31:05;7.00;;;2.55;;
62990;SDS011;49084;48.204;16.202;2023-06-04T03:33:31;3.67;;;2.50;;
62990;SDS011;49084;48.204;16.202;2023-06-04T03:35:56;6.50;;;2.40;;
62990;SDS011;49084;48.204;16.202;2023-06-04T03:38:25;7.70;;;2.53;;
62990;SDS011;49084;48.204;16.202;2023-06-04T03:40:51;4.63;;;2.28;;
62990;SDS011;49084;48.204;16.202;2023-06-04T03:43:18;7.32;;;2.42;;
62990;SDS011;49084;48.204;16.202;2023-06-04T03:45:46;5.65;;;2.53;;
62990;SDS011;49084;48.204;16.202;2023-06-04T03:48:12;6.47;;;2.55;;
62990;SDS011;49084;48.204;16.202;2023-06-04T03:50:38;7.50;;;2.40;;
62990;SDS011;49084;48.204;16.202;2023-06-04T03:53:03;4.25;;;2.50;;
62990;SDS011;49084;48.204;16.202;2023-06-04T03:55:32;6.90;;;2.22;;
62990;SDS011;49084;48.204;16.202;2023-06-04T03:57:58;3.83;;;1.95;;
62990;SDS011;49084;48.204;16.202;2023-06-04T04:00:24;7.38;;;2.22;;
62990;SDS011;49084;48.204;16.202;2023-06-04T04:02:51;6.57;;;2.03;;
62990;SDS011;49084;48.204;16.202;2023-06-04T04:05:17;5.47;;;1.95;;
62990;SDS011;49084;48.204;16.202;2023-06-04T04:07:42;4.32;;;2.88;;
62990;SDS011;49084;48.204;16.202;2023-06-04T04:10:08;5.15;;;2.10;;
62990;SDS011;49084;48.204;16.202;2023-06-04T04:12:35;4.13;;;1.92;;
62990;SDS011;49084;48.204;16.202;2023-06-04T04:15:00;3.83;;;2.60;;
62990;SDS011;49084;48.204;16.202;2023-06-04T04:17:26;4.63;;;2.38;;
62990;SDS011;49084;48.204;16.202;2023-06-04T04:19:52;4.63;;;2.40;;
62990;SDS011;49084;48.204;16.202;2023-06-04T04:22:17;3.22;;;2.25;;
62990;SDS011;49084;48.204;16.202;2023-06-04T04:24:43;3.67;;;2.13;;
62990;SDS011;49084;48.204;16.202;2023-06-04T04:27:09;5.88;;;2.42;;
62990;SDS011;49084;48.204;16.202;2023-06-04T04:32:04;3.30;;;2.22;;
62990;SDS011;49084;48.204;16.202;2023-06-04T04:34:36;6.43;;;2.42;;
62990;SDS011;49084;48.204;16.202;2023-06-04T04:37:04;3.95;;;2.55;;
62990;SDS011;49084;48.204;16.202;2023-06-04T04:39:33;6.50;;;1.92;;
62990;SDS011;49084;48.204;16.202;2023-06-04T04:42:00;3.15;;;1.90;;
62990;SDS011;49084;48.204;16.202;2023-06-04T04:44:26;6.45;;;2.25;;
62990;SDS011;49084;48.204;16.202;2023-06-04T04:46:51;7.32;;;2.78;;
62990;SDS011;49084;48.204;16.202;2023-06-04T04:49:17;5.22;;;2.67;;
62990;SDS011;49084;48.204;16.202;2023-06-04T04:51:42;6.45;;;2.22;;
62990;SDS011;49084;48.204;16.202;2023-06-04T04:54:08;2.30;;;1.77;;
62990;SDS011;49084;48.204;16.202;2023-06-04T04:56:34;4.93;;;2.20;;
62990;SDS011;49084;48.204;16.202;2023-06-04T04:59:00;7.85;;;2.17;;
62990;SDS011;49084;48.204;16.202;2023-06-04T05:01:26;4.10;;;2.00;;
62990;SDS011;49084;48.204;16.202;2023-06-04T05:03:52;5.25;;;2.15;;
62990;SDS011;49084;48.204;16.202;2023-06-04T05:06:17;3.55;;;2.28;;
62990;SDS011;49084;48.204;16.202;2023-06-04T05:08:43;4.80;;;2.13;;
62990;SDS011;49084;48.204;16.202;2023-06-04T05:11:09;4.65;;;2.08;;
62990;SDS011;49084;48.204;16.202;2023-06-04T05:13:34;4.80;;;1.95;;
62990;SDS011;49084;48.204;16.202;2023-06-04T05:16:01;4.38;;;1.98;;
62990;SDS011;49084;48.204;16.202;2023-06-04T05:18:36;5.78;;;2.03;;
62990;SDS011;49084;48.204;16.202;2023-06-04T05:21:05;3.78;;;1.73;;
62990;SDS011;49084;48.204;16.202;2023-06-04T05:23:32;5.97;;;2.35;;
62990;SDS011;49084;48.204;16.202;2023-06-04T05:25:59;3.47;;;2.28;;
62990;SDS011;49084;48.204;16.202;2023-06-04T05:28:29;10.20;;;2.53;;
62990;SDS011;49084;48.204;16.202;2023-06-04T05:30:54;5.00;;;2.08;;
62990;SDS011;49084;48.204;16.202;2023-06-04T05:33:28;3.67;;;2.28;;
62990;SDS011;49084;48.204;16.202;2023-06-04T05:35:55;3.28;;;1.83;;
62990;SDS011;49084;48.204;16.202;2023-06-04T05:38:22;5.63;;;3.00;;
62990;SDS011;49084;48.204;16.202;2023-06-04T05:40:51;5.63;;;1.75;;
62990;SDS011;49084;48.204;16.202;2023-06-04T05:43:17;6.65;;;2.10;;
62990;SDS011;49084;48.204;16.202;2023-06-04T05:45:43;4.18;;;2.08;;
62990;SDS011;49084;48.204;16.202;2023-06-04T05:48:09;2.70;;;1.60;;
62990;SDS011;49084;48.204;16.202;2023-06-04T05:50:34;4.82;;;2.30;;
62990;SDS011;49084;48.204;16.202;2023-06-04T05:53:00;4.03;;;2.17;;
62990;SDS011;49084;48.204;16.202;2023-06-04T05:55:26;5.00;;;1.90;;
62990;SDS011;49084;48.204;16.202;2023-06-04T05:57:53;6.45;;;2.00;;
62990;SDS011;49084;48.204;16.202;2023-06-04T06:00:19;7.53;;;2.10;;
62990;SDS011;49084;48.204;16.202;2023-06-04T06:02:45;6.00;;;2.10;;
62990;SDS011;49084;48.204;16.202;2023-06-04T06:05:13;4.75;;;1.88;;
62990;SDS011;49084;48.204;16.202;2023-06-04T06:07:39;6.03;;;2.03;;
62990;SDS011;49084;48.204;16.202;2023-06-04T06:10:05;5.93;;;2.08;;
62990;SDS011;49084;48.204;16.202;2023-06-04T06:12:31;7.05;;;1.92;;
62990;SDS011;49084;48.204;16.202;2023-06-04T06:14:57;4.88;;;2.33;;
62990;SDS011;49084;48.204;16.202;2023-06-04T06:17:23;4.65;;;1.98;;
62990;SDS011;49084;48.204;16.202;2023-06-04T06:19:49;4.38;;;2.10;;
62990;SDS011;49084;48.204;16.202;2023-06-04T06:22:14;4.53;;;2.88;;
62990;SDS011;49084;48.204;16.202;2023-06-04T06:24:40;3.60;;;2.40;;
62990;SDS011;49084;48.204;16.202;2023-06-04T06:27:06;4.50;;;2.35;;
62990;SDS011;49084;48.204;16.202;2023-06-04T06:29:32;6.40;;;2.33;;
62990;SDS011;49084;48.204;16.202;2023-06-04T06:31:58;4.32;;;2.10;;
62990;SDS011;49084;48.204;16.202;2023-06-04T06:34:24;5.75;;;2.70;;
62990;SDS011;49084;48.204;16.202;2023-06-04T06:36:50;4.95;;;2.17;;
62990;SDS011;49084;48.204;16.202;2023-06-04T06:39:15;6.45;;;2.80;;
62990;SDS011;49084;48.204;16.202;2023-06-04T06:41:41;5.68;;;3.05;;
62990;SDS011;49084;48.204;16.202;2023-06-04T06:44:07;6.70;;;2.28;;
62990;SDS011;49084;48.204;16.202;2023-06-04T06:46:33;4.03;;;2.30;;
62990;SDS011;49084;48.204;16.202;2023-06-04T06:48:58;5.30;;;2.78;;
62990;SDS011;49084;48.204;16.202;2023-06-04T06:51:24;6.63;;;3.33;;
62990;SDS011;49084;48.204;16.202;2023-06-04T06:53:50;7.22;;;2.92;;
62990;SDS011;49084;48.204;16.202;2023-06-04T06:56:16;6.03;;;3.00;;
62990;SDS011;49084;48.204;16.202;2023-06-04T06:58:43;5.57;;;3.10;;
62990;SDS011;49084;48.204;16.202;2023-06-04T07:01:09;6.78;;;2.70;;
62990;SDS011;49084;48.204;16.202;2023-06-04T07:03:35;8.52;;;2.75;;
62990;SDS011;49084;48.204;16.202;2023-06-04T07:06:01;3.50;;;2.80;;
62990;SDS011;49084;48.204;16.202;2023-06-04T07:08:26;6.20;;;3.00;;
62990;SDS011;49084;48.204;16.202;2023-06-04T07:10:53;4.00;;;2.63;;
62990;SDS011;49084;48.204;16.202;2023-06-04T07:13:19;7.95;;;3.03;;
62990;SDS011;49084;48.204;16.202;2023-06-04T07:15:44;4.35;;;3.03;;
62990;SDS011;49084;48.204;16.202;2023-06-04T07:18:10;6.03;;;2.65;;
62990;SDS011;49084;48.204;16.202;2023-06-04T07:20:36;6.15;;;3.47;;
62990;SDS011;49084;48.204;16.202;2023-06-04T07:23:01;5.53;;;3.20;;
62990;SDS011;49084;48.204;16.202;2023-06-04T07:25:27;6.88;;;2.78;;
62990;SDS011;49084;48.204;16.202;2023-06-04T07:27:56;4.57;;;3.00;;
62990;SDS011;49084;48.204;16.202;2023-06-04T07:30:23;4.55;;;3.20;;
62990;SDS011;49084;48.204;16.202;2023-06-04T07:32:51;7.75;;;3.92;;
62990;SDS011;49084;48.204;16.202;2023-06-04T07:35:17;5.28;;;3.08;;
62990;SDS011;49084;48.204;16.202;2023-06-04T07:37:42;9.90;;;3.55;;
62990;SDS011;49084;48.204;16.202;2023-06-04T07:40:10;7.45;;;3.72;;
62990;SDS011;49084;48.204;16.202;2023-06-04T07:42:36;6.95;;;3.10;;
62990;SDS011;49084;48.204;16.202;2023-06-04T07:45:02;6.20;;;3.55;;
62990;SDS011;49084;48.204;16.202;2023-06-04T07:47:28;8.75;;;3.45;;
62990;SDS011;49084;48.204;16.202;2023-06-04T07:49:54;8.75;;;3.65;;
62990;SDS011;49084;48.204;16.202;2023-06-04T07:52:20;5.45;;;2.92;;
62990;SDS011;49084;48.204;16.202;2023-06-04T07:54:45;8.82;;;3.60;;
62990;SDS011;49084;48.204;16.202;2023-06-04T07:57:11;5.57;;;3.30;;
62990;SDS011;49084;48.204;16.202;2023-06-04T07:59:37;4.25;;;3.03;;
62990;SDS011;49084;48.204;16.202;2023-06-04T08:02:03;5.68;;;3.13;;
62990;SDS011;49084;48.204;16.202;2023-06-04T08:04:29;7.20;;;3.60;;
62990;SDS011;49084;48.204;16.202;2023-06-04T08:06:54;6.43;;;3.30;;
62990;SDS011;49084;48.204;16.202;2023-06-04T08:09:21;4.90;;;3.40;;
62990;SDS011;49084;48.204;16.202;2023-06-04T08:11:46;13.18;;;3.70;;
62990;SDS011;49084;48.204;16.202;2023-06-04T08:14:12;4.35;;;3.13;;
62990;SDS011;49084;48.204;16.202;2023-06-04T08:16:38;9.35;;;4.00;;
62990;SDS011;49084;48.204;16.202;2023-06-04T08:19:05;4.55;;;3.10;;
62990;SDS011;49084;48.204;16.202;2023-06-04T08:21:32;5.20;;;3.22;;
62990;SDS011;49084;48.204;16.202;2023-06-04T08:23:58;7.80;;;3.47;;
62990;SDS011;49084;48.204;16.202;2023-06-04T08:26:24;7.93;;;3.47;;
62990;SDS011;49084;48.204;16.202;2023-06-04T08:28:51;9.75;;;3.83;;
62990;SDS011;49084;48.204;16.202;2023-06-04T08:31:17;7.22;;;3.60;;
62990;SDS011;49084;48.204;16.202;2023-06-04T08:33:44;9.00;;;3.20;;
62990;SDS011;49084;48.204;16.202;2023-06-04T08:36:10;8.70;;;3.60;;
62990;SDS011;49084;48.204;16.202;2023-06-04T08:38:36;6.38;;;3.13;;
62990;SDS011;49084;48.204;16.202;2023-06-04T08:41:12;4.57;;;3.30;;
62990;SDS011;49084;48.204;16.202;2023-06-04T08:43:40;3.92;;;3.60;;
62990;SDS011;49084;48.204;16.202;2023-06-04T08:46:10;7.13;;;3.60;;
62990;SDS011;49084;48.204;16.202;2023-06-04T08:48:37;6.28;;;3.72;;
62990;SDS011;49084;48.204;16.202;2023-06-04T08:51:05;6.35;;;3.90;;
62990;SDS011;49084;48.204;16.202;2023-06-04T08:53:35;7.72;;;3.47;;
62990;SDS011;49084;48.204;16.202;2023-06-04T08:56:02;6.03;;;3.50;;
62990;SDS011;49084;48.204;16.202;2023-06-04T08:58:31;4.85;;;3.30;;
62990;SDS011;49084;48.204;16.202;2023-06-04T09:00:58;7.63;;;3.65;;
62990;SDS011;49084;48.204;16.202;2023-06-04T09:03:26;5.22;;;2.95;;
62990;SDS011;49084;48.204;16.202;2023-06-04T09:05:52;7.20;;;3.78;;
62990;SDS011;49084;48.204;16.202;2023-06-04T09:08:20;6.65;;;3.67;;
62990;SDS011;49084;48.204;16.202;2023-06-04T09:10:47;6.10;;;3.63;;
62990;SDS011;49084;48.204;16.202;2023-06-04T09:13:17;7.22;;;4.28;;
62990;SDS011;49084;48.204;16.202;2023-06-04T09:15:45;4.55;;;3.88;;
62990;SDS011;49084;48.204;16.202;2023-06-04T09:18:11;7.60;;;3.70;;
62990;SDS011;49084;48.204;16.202;2023-06-04T09:20:37;4.75;;;3.58;;
62990;SDS011;49084;48.204;16.202;2023-06-04T09:23:12;4.82;;;3.28;;
62990;SDS011;49084;48.204;16.202;2023-06-04T09:25:42;10.10;;;3.70;;
62990;SDS011;49084;48.204;16.202;2023-06-04T09:28:08;7.85;;;3.80;;
62990;SDS011;49084;48.204;16.202;2023-06-04T09:30:34;6.90;;;3.33;;
62990;SDS011;49084;48.204;16.202;2023-06-04T09:33:09;5.38;;;3.50;;
62990;SDS011;49084;48.204;16.202;2023-06-04T09:35:37;10.90;;;3.08;;
62990;SDS011;49084;48.204;16.202;2023-06-04T09:38:04;7.78;;;3.65;;
62990;SDS011;49084;48.204;16.202;2023-06-04T09:40:36;4.35;;;3.35;;
62990;SDS011;49084;48.204;16.202;2023-06-04T09:43:02;4.75;;;3.08;;
62990;SDS011;49084;48.204;16.202;2023-06-04T09:45:34;5.45;;;3.30;;
62990;SDS011;49084;48.204;16.202;2023-06-04T09:48:01;5.20;;;3.15;;
62990;SDS011;49084;48.204;16.202;2023-06-04T09:50:29;5.93;;;3.70;;
62990;SDS011;49084;48.204;16.202;2023-06-04T09:53:17;7.78;;;3.55;;
62990;SDS011;49084;48.204;16.202;2023-06-04T09:55:59;5.97;;;3.40;;
62990;SDS011;49084;48.204;16.202;2023-06-04T09:58:27;4.63;;;2.80;;
62990;SDS011;49084;48.204;16.202;2023-06-04T10:00:57;3.97;;;2.80;;
62990;SDS011;49084;48.204;16.202;2023-06-04T10:03:24;4.90;;;2.88;;
62990;SDS011;49084;48.204;16.202;2023-06-04T10:05:55;5.30;;;3.25;;
62990;SDS011;49084;48.204;16.202;2023-06-04T10:08:22;7.97;;;3.30;;
62990;SDS011;49084;48.204;16.202;2023-06-04T10:10:49;7.00;;;2.85;;
62990;SDS011;49084;48.204;16.202;2023-06-04T10:13:17;5.20;;;3.67;;
62990;SDS011;49084;48.204;16.202;2023-06-04T10:15:47;10.13;;;3.58;;
62990;SDS011;49084;48.204;16.202;2023-06-04T10:18:14;8.05;;;3.30;;
62990;SDS011;49084;48.204;16.202;2023-06-04T10:20:41;3.10;;;2.70;;
62990;SDS011;49084;48.204;16.202;2023-06-04T10:23:07;4.43;;;2.75;;
62990;SDS011;49084;48.204;16.202;2023-06-04T10:25:35;3.60;;;3.03;;
62990;SDS011;49084;48.204;16.202;2023-06-04T10:28:02;2.97;;;2.63;;
62990;SDS011;49084;48.204;16.202;2023-06-04T10:30:31;8.27;;;3.10;;
62990;SDS011;49084;48.204;16.202;2023-06-04T10:32:57;6.03;;;2.80;;
62990;SDS011;49084;48.204;16.202;2023-06-04T10:35:33;8.02;;;3.05;;
62990;SDS011;49084;48.204;16.202;2023-06-04T10:38:09;4.95;;;3.17;;
62990;SDS011;49084;48.204;16.202;2023-06-04T10:40:36;6.50;;;2.95;;
62990;SDS011;49084;48.204;16.202;2023-06-04T10:43:07;5.03;;;2.85;;
62990;SDS011;49084;48.204;16.202;2023-06-04T10:45:36;5.85;;;2.70;;
62990;SDS011;49084;48.204;16.202;2023-06-04T10:48:02;7.93;;;3.72;;
62990;SDS011;49084;48.204;16.202;2023-06-04T10:50:30;6.00;;;3.05;;
62990;SDS011;49084;48.204;16.202;2023-06-04T10:52:57;4.75;;;2.50;;
62990;SDS011;49084;48.204;16.202;2023-06-04T10:55:23;10.27;;;2.95;;
62990;SDS011;49084;48.204;16.202;2023-06-04T10:57:54;4.25;;;2.83;;
62990;SDS011;49084;48.204;16.202;2023-06-04T11:05:36;6.38;;;2.75;;
62990;SDS011;49084;48.204;16.202;2023-06-04T11:08:03;5.68;;;3.00;;
62990;SDS011;49084;48.204;16.202;2023-06-04T11:10:37;6.82;;;2.95;;
62990;SDS011;49084;48.204;16.202;2023-06-04T11:13:05;4.50;;;2.78;;
62990;SDS011;49084;48.204;16.202;2023-06-04T11:15:43;5.22;;;2.60;;
62990;SDS011;49084;48.204;16.202;2023-06-04T11:18:17;4.78;;;2.40;;
62990;SDS011;49084;48.204;16.202;2023-06-04T11:20:44;6.55;;;2.33;;
62990;SDS011;49084;48.204;16.202;2023-06-04T11:23:11;6.22;;;2.40;;
62990;SDS011;49084;48.204;16.202;2023-06-04T11:25:37;5.28;;;2.28;;
62990;SDS011;49084;48.204;16.202;2023-06-04T11:28:03;3.97;;;2.20;;
62990;SDS011;49084;48.204;16.202;2023-06-04T11:30:29;5.55;;;2.38;;
62990;SDS011;49084;48.204;16.202;2023-06-04T11:33:02;4.45;;;3.05;;
62990;SDS011;49084;48.204;16.202;2023-06-04T11:35:29;3.85;;;2.30;;
62990;SDS011;49084;48.204;16.202;2023-06-04T11:37:57;3.72;;;3.00;;
62990;SDS011;49084;48.204;16.202;2023-06-04T11:40:23;7.15;;;2.58;;
62990;SDS011;49084;48.204;16.202;2023-06-04T11:42:49;6.45;;;2.53;;
62990;SDS011;49084;48.204;16.202;2023-06-04T11:45:16;6.72;;;3.20;;
62990;SDS011;49084;48.204;16.202;2023-06-04T11:47:56;7.13;;;2.67;;
62990;SDS011;49084;48.204;16.202;2023-06-04T11:50:22;3.78;;;2.30;;
62990;SDS011;49084;48.204;16.202;2023-06-04T11:52:52;5.70;;;2.50;;
62990;SDS011;49084;48.204;16.202;2023-06-04T11:55:18;6.85;;;2.67;;
62990;SDS011;49084;48.204;16.202;2023-06-04T11:57:47;5.22;;;2.80;;
62990;SDS011;49084;48.204;16.202;2023-06-04T12:00:14;8.07;;;2.88;;
62990;SDS011;49084;48.204;16.202;2023-06-04T12:02:52;4.57;;;2.17;;
62990;SDS011;49084;48.204;16.202;2023-06-04T12:05:19;6.93;;;2.83;;
62990;SDS011;49084;48.204;16.202;2023-06-04T12:07:49;7.20;;;2.42;;
62990;SDS011;49084;48.204;16.202;2023-06-04T12:10:19;7.30;;;2.83;;
62990;SDS011;49084;48.204;16.202;2023-06-04T12:12:46;8.93;;;2.22;;
62990;SDS011;49084;48.204;16.202;2023-06-04T12:15:12;4.00;;;2.20;;
62990;SDS011;49084;48.204;16.202;2023-06-04T12:17:54;5.10;;;2.45;;
62990;SDS011;49084;48.204;16.202;2023-06-04T12:20:33;7.47;;;2.42;;
62990;SDS011;49084;48.204;16.202;2023-06-04T12:23:00;7.43;;;2.38;;
62990;SDS011;49084;48.204;16.202;2023-06-04T12:25:26;7.95;;;2.50;;
62990;SDS011;49084;48.204;16.202;2023-06-04T12:27:53;6.07;;;2.58;;
62990;SDS011;49084;48.204;16.202;2023-06-04T12:30:19;3.42;;;2.38;;
62990;SDS011;49084;48.204;16.202;2023-06-04T12:32:45;6.68;;;2.35;;
62990;SDS011;49084;48.204;16.202;2023-06-04T12:35:11;4.05;;;1.90;;
62990;SDS011;49084;48.204;16.202;2023-06-04T12:37:36;6.22;;;1.98;;
62990;SDS011;49084;48.204;16.202;2023-06-04T12:40:02;2.55;;;1.60;;
62990;SDS011;49084;48.204;16.202;2023-06-04T12:42:31;6.63;;;2.10;;
62990;SDS011;49084;48.204;16.202;2023-06-04T12:44:57;5.82;;;2.00;;
62990;SDS011;49084;48.204;16.202;2023-06-04T12:47:23;2.88;;;1.67;;
62990;SDS011;49084;48.204;16.202;2023-06-04T12:49:48;5.97;;;2.05;;
62990;SDS011;49084;48.204;16.202;2023-06-04T12:52:16;5.35;;;2.70;;
62990;SDS011;49084;48.204;16.202;2023-06-04T12:54:42;7.82;;;2.78;;
62990;SDS011;49084;48.204;16.202;2023-06-04T12:57:08;4.30;;;2.10;;
62990;SDS011;49084;48.204;16.202;2023-06-04T12:59:33;2.78;;;2.38;;
62990;SDS011;49084;48.204;16.202;2023-06-04T13:01:59;6.32;;;2.15;;
62990;SDS011;49084;48.204;16.202;2023-06-04T13:04:25;5.60;;;2.70;;
62990;SDS011;49084;48.204;16.202;2023-06-04T13:06:51;5.13;;;2.17;;
62990;SDS011;49084;48.204;16.202;2023-06-04T13:09:18;5.53;;;2.72;;
62990;SDS011;49084;48.204;16.202;2023-06-04T13:11:45;4.28;;;2.17;;
62990;SDS011;49084;48.204;16.202;2023-06-04T13:14:11;5.57;;;2.20;;
62990;SDS011;49084;48.204;16.202;2023-06-04T13:16:40;5.25;;;2.15;;
62990;SDS011;49084;48.204;16.202;2023-06-04T13:19:06;5.10;;;2.10;;
62990;SDS011;49084;48.204;16.202;2023-06-04T13:21:32;6.93;;;2.00;;
62990;SDS011;49084;48.204;16.202;2023-06-04T13:23:58;4.47;;;2.13;;
62990;SDS011;49084;48.204;16.202;2023-06-04T13:26:24;4.90;;;1.70;;
62990;SDS011;49084;48.204;16.202;2023-06-04T13:28:50;8.68;;;2.38;;
62990;SDS011;49084;48.204;16.202;2023-06-04T13:31:16;3.60;;;1.77;;
62990;SDS011;49084;48.204;16.202;2023-06-04T13:33:42;1.90;;;1.70;;
62990;SDS011;49084;48.204;16.202;2023-06-04T13:36:08;2.20;;;2.00;;
62990;SDS011;49084;48.204;16.202;2023-06-04T13:38:34;5.70;;;2.30;;
62990;SDS011;49084;48.204;16.202;2023-06-04T13:41:00;6.35;;;2.10;;
62990;SDS011;49084;48.204;16.202;2023-06-04T13:43:25;7.25;;;2.08;;
62990;SDS011;49084;48.204;16.202;2023-06-04T13:45:51;7.05;;;2.38;;
62990;SDS011;49084;48.204;16.202;2023-06-04T13:48:17;3.90;;;1.95;;
62990;SDS011;49084;48.204;16.202;2023-06-04T13:50:43;5.00;;;3.15;;
62990;SDS011;49084;48.204;16.202;2023-06-04T13:53:09;5.95;;;2.58;;
62990;SDS011;49084;48.204;16.202;2023-06-04T13:55:35;7.65;;;2.60;;
62990;SDS011;49084;48.204;16.202;2023-06-04T13:58:00;3.83;;;2.28;;
62990;SDS011;49084;48.204;16.202;2023-06-04T14:00:26;3.30;;;2.28;;
62990;SDS011;49084;48.204;16.202;2023-06-04T14:02:52;5.75;;;2.50;;
62990;SDS011;49084;48.204;16.202;2023-06-04T14:05:20;4.82;;;2.38;;
62990;SDS011;49084;48.204;16.202;2023-06-04T14:07:45;9.27;;;2.45;;
62990;SDS011;49084;48.204;16.202;2023-06-04T14:10:11;7.35;;;2.70;;
62990;SDS011;49084;48.204;16.202;2023-06-04T14:12:37;5.63;;;2.30;;
62990;SDS011;49084;48.204;16.202;2023-06-04T14:15:07;4.50;;;2.75;;
62990;SDS011;49084;48.204;16.202;2023-06-04T14:17:34;5.50;;;2.70;;
62990;SDS011;49084;48.204;16.202;2023-06-04T14:20:01;6.85;;;2.03;;
62990;SDS011;49084;48.204;16.202;2023-06-04T14:22:32;5.50;;;2.63;;
62990;SDS011;49084;48.204;16.202;2023-06-04T14:24:58;5.38;;;2.25;;
62990;SDS011;49084;48.204;16.202;2023-06-04T14:27:24;7.63;;;2.40;;
62990;SDS011;49084;48.204;16.202;2023-06-04T14:29:50;7.63;;;2.60;;
62990;SDS011;49084;48.204;16.202;2023-06-04T14:32:15;5.15;;;2.58;;
62990;SDS011;49084;48.204;16.202;2023-06-04T14:34:41;5.95;;;2.40;;
62990;SDS011;49084;48.204;16.202;2023-06-04T14:37:07;5.18;;;2.92;;
62990;SDS011;49084;48.204;16.202;2023-06-04T14:39:32;5.75;;;2.60;;
62990;SDS011;49084;48.204;16.202;2023-06-04T14:41:58;4.03;;;2.13;;
62990;SDS011;49084;48.204;16.202;2023-06-04T14:44:23;8.13;;;2.42;;